Time;durP1;ratioP1;P1;durP2;ratioP2;P2;SDS_P1;SDS_P2;PMS_P1;PMS_P2;Temp;Humidity;BMP_temperature;BMP_pressure;BME280_temperature;BME280_humidity;BME280_pressure;Samples;Min_cycle;Max_cycle;Signal;HPM_P1;HPM_P2
2021/09/05 00:00:52;;;;;;;12.27;8.50;;;19.50;99.90;;;;;;5090565;28;20043;-64
2021/09/05 00:03:18;;;;;;;13.65;9.00;;;19.40;99.90;;;;;;5090378;28;20024;-64
2021/09/05 00:05:44;;;;;;;11.45;8.20;;;19.40;99.90;;;;;;5090236;28;20354;-65
2021/09/05 00:08:09;;;;;;;11.45;8.40;;;19.50;99.90;;;;;;5090493;28;20038;-66
2021/09/05 00:10:35;;;;;;;11.73;8.68;;;19.40;99.90;;;;;;5088244;28;20022;-66
2021/09/05 00:13:01;;;;;;;14.85;8.88;;;19.40;99.90;;;;;;5089223;28;20358;-68
2021/09/05 00:15:27;;;;;;;11.57;8.27;;;19.30;99.90;;;;;;5089231;28;20126;-64
2021/09/05 00:17:52;;;;;;;11.88;8.90;;;19.30;99.90;;;;;;5089714;28;20445;-64
2021/09/05 00:20:18;;;;;;;14.18;9.90;;;19.30;99.90;;;;;;5090760;28;20054;-64
2021/09/05 00:22:46;;;;;;;10.98;8.98;;;19.20;99.90;;;;;;5089407;28;20032;-64
2021/09/05 00:25:12;;;;;;;12.75;9.52;;;19.20;99.90;;;;;;5090977;28;20507;-64
2021/09/05 00:27:37;;;;;;;11.98;8.02;;;19.20;99.90;;;;;;5091184;28;20032;-64
2021/09/05 00:30:03;;;;;;;13.35;8.23;;;19.20;99.90;;;;;;5089538;28;20039;-64
2021/09/05 00:32:29;;;;;;;12.45;8.85;;;19.20;99.90;;;;;;5091004;28;20042;-75
2021/09/05 00:34:55;;;;;;;16.02;9.00;;;19.20;99.90;;;;;;5090875;28;20040;-64
2021/09/05 00:37:21;;;;;;;13.90;8.90;;;19.10;99.90;;;;;;5090713;28;20059;-64
2021/09/05 00:39:46;;;;;;;12.50;9.60;;;19.10;99.90;;;;;;5090433;28;20476;-64
2021/09/05 00:42:12;;;;;;;12.90;8.85;;;19.00;99.90;;;;;;5089645;28;20021;-64
2021/09/05 00:44:37;;;;;;;13.27;9.52;;;19.10;99.90;;;;;;5089133;28;20071;-65
2021/09/05 00:47:03;;;;;;;11.73;9.38;;;18.90;99.90;;;;;;5091168;28;20457;-64
2021/09/05 00:49:29;;;;;;;12.38;9.88;;;18.90;99.90;;;;;;5090943;28;20047;-64
2021/09/05 00:51:55;;;;;;;11.23;8.48;;;18.90;99.90;;;;;;5090218;28;20318;-64
2021/09/05 00:54:21;;;;;;;11.07;9.63;;;18.90;99.90;;;;;;5090518;28;20031;-63
2021/09/05 00:56:46;;;;;;;13.60;9.23;;;18.80;99.90;;;;;;5090282;28;20016;-64
2021/09/05 00:59:17;;;;;;;11.60;9.68;;;18.90;99.90;;;;;;5089325;28;20066;-64
2021/09/05 01:01:43;;;;;;;14.13;9.23;;;18.70;99.90;;;;;;5090518;28;20043;-63
2021/09/05 01:04:09;;;;;;;11.80;9.65;;;18.80;99.90;;;;;;5089465;28;20131;-64
2021/09/05 01:06:38;;;;;;;11.82;9.18;;;18.70;99.90;;;;;;5088924;28;20024;-65
2021/09/05 01:09:05;;;;;;;11.10;8.52;;;18.70;99.90;;;;;;5092061;28;20043;-65
2021/09/05 01:11:32;;;;;;;11.55;8.48;;;18.70;99.90;;;;;;5094959;28;20452;-64
2021/09/05 01:13:59;;;;;;;12.48;9.48;;;18.60;99.90;;;;;;5094785;28;20024;-63
2021/09/05 01:16:31;;;;;;;11.00;9.07;;;18.60;99.90;;;;;;5094673;28;20024;-64
2021/09/05 01:19:08;;;;;;;12.32;9.50;;;18.60;99.90;;;;;;5094457;28;20097;-64
2021/09/05 01:21:34;;;;;;;14.60;9.30;;;18.60;99.90;;;;;;5094311;28;20032;-64
2021/09/05 01:24:02;;;;;;;13.77;9.57;;;18.60;99.90;;;;;;5094199;28;20117;-64
2021/09/05 01:26:29;;;;;;;12.15;9.85;;;18.60;99.90;;;;;;5093058;28;20023;-64
2021/09/05 01:28:55;;;;;;;15.00;9.85;;;18.50;99.90;;;;;;5092662;28;20411;-64
2021/09/05 01:31:22;;;;;;;13.20;10.20;;;18.60;99.90;;;;;;5093090;28;20472;-64
2021/09/05 01:33:48;;;;;;;13.80;9.55;;;18.50;99.90;;;;;;5092461;28;20047;-65
2021/09/05 01:36:16;;;;;;;12.88;10.15;;;18.40;99.90;;;;;;5093998;28;20028;-64
2021/09/05 01:38:41;;;;;;;16.52;10.75;;;18.40;99.90;;;;;;5092275;28;20144;-66
2021/09/05 01:41:07;;;;;;;15.95;10.57;;;18.40;99.90;;;;;;5094218;28;20033;-64
2021/09/05 01:43:33;;;;;;;12.07;9.93;;;18.40;99.90;;;;;;5094238;28;20454;-64
2021/09/05 01:45:59;;;;;;;14.18;10.32;;;18.40;99.90;;;;;;5094633;28;20059;-64
2021/09/05 01:48:24;;;;;;;13.73;9.80;;;18.30;99.90;;;;;;5094236;28;20409;-64
2021/09/05 01:50:50;;;;;;;16.00;10.73;;;18.30;99.90;;;;;;5093602;28;20028;-64
2021/09/05 01:53:16;;;;;;;14.95;11.00;;;18.30;99.90;;;;;;5094284;28;20032;-64
2021/09/05 01:55:42;;;;;;;14.82;10.15;;;18.30;99.90;;;;;;5093568;28;20345;-64
2021/09/05 01:58:07;;;;;;;13.25;10.02;;;18.30;99.90;;;;;;5092204;28;20036;-64
2021/09/05 02:00:33;;;;;;;13.77;10.27;;;18.20;99.90;;;;;;5094309;28;20039;-63
2021/09/05 02:02:58;;;;;;;14.30;10.20;;;18.20;99.90;;;;;;5091941;28;20050;-63
2021/09/05 02:05:24;;;;;;;19.65;10.35;;;18.30;99.90;;;;;;5093588;28;20028;-64
2021/09/05 02:07:50;;;;;;;13.13;9.93;;;18.20;99.90;;;;;;5093166;28;20032;-64
2021/09/05 02:10:15;;;;;;;15.38;10.40;;;18.20;99.90;;;;;;5093265;28;20035;-65
2021/09/05 02:12:41;;;;;;;15.32;10.50;;;18.10;99.90;;;;;;5092762;28;20112;-64
2021/09/05 02:15:07;;;;;;;16.98;10.57;;;18.10;99.90;;;;;;5093645;28;20031;-64
2021/09/05 02:17:33;;;;;;;15.10;10.63;;;18.10;99.90;;;;;;5093641;28;20032;-64
2021/09/05 02:19:59;;;;;;;16.40;10.57;;;18.10;99.90;;;;;;5091653;28;20035;-64
2021/09/05 02:22:24;;;;;;;15.60;9.82;;;18.10;99.90;;;;;;5092726;28;20460;-63
2021/09/05 02:24:50;;;;;;;15.93;11.00;;;18.10;99.90;;;;;;5092699;28;20096;-64
2021/09/05 02:27:16;;;;;;;15.73;10.43;;;18.10;99.90;;;;;;5093117;28;20449;-64
2021/09/05 02:29:41;;;;;;;14.68;9.75;;;18.10;99.90;;;;;;5090944;28;20032;-65
2021/09/05 02:32:07;;;;;;;17.45;11.18;;;18.10;99.90;;;;;;5093268;28;20028;-65
2021/09/05 02:34:33;;;;;;;19.85;12.55;;;18.00;99.90;;;;;;5091837;28;20032;-65
2021/09/05 02:36:59;;;;;;;19.73;11.57;;;17.90;99.90;;;;;;5091280;28;20024;-65
2021/09/05 02:39:25;;;;;;;17.83;11.20;;;17.80;99.90;;;;;;5092716;28;20354;-65
2021/09/05 02:41:50;;;;;;;16.83;11.13;;;17.80;99.90;;;;;;5092434;28;20032;-65
2021/09/05 02:44:16;;;;;;;13.55;10.10;;;17.80;99.90;;;;;;5092988;28;20027;-65
2021/09/05 02:46:41;;;;;;;16.00;11.60;;;17.80;99.90;;;;;;5092429;28;20059;-63
2021/09/05 02:49:07;;;;;;;22.48;11.32;;;17.80;99.90;;;;;;5092640;28;20028;-63
2021/09/05 02:51:33;;;;;;;16.13;11.27;;;17.90;99.90;;;;;;5091302;28;20028;-63
2021/09/05 02:53:58;;;;;;;20.27;11.55;;;17.80;99.90;;;;;;5090410;28;20038;-63
2021/09/05 02:56:24;;;;;;;15.93;11.25;;;17.80;99.90;;;;;;5091241;28;20123;-63
2021/09/05 02:58:49;;;;;;;18.30;12.70;;;17.80;99.90;;;;;;5090715;28;20040;-64
2021/09/05 03:01:15;;;;;;;17.17;12.10;;;17.80;99.90;;;;;;5092700;28;20488;-64
2021/09/05 03:03:40;;;;;;;17.75;12.65;;;17.70;99.90;;;;;;5091075;28;20032;-65
2021/09/05 03:06:06;;;;;;;18.88;11.50;;;17.70;99.90;;;;;;5091516;28;20549;-65
2021/09/05 03:08:32;;;;;;;19.02;13.50;;;17.70;99.90;;;;;;5092501;28;20036;-64
2021/09/05 03:10:57;;;;;;;17.33;12.13;;;17.60;99.90;;;;;;5090742;28;20458;-64
2021/09/05 03:13:23;;;;;;;19.77;12.07;;;17.70;99.90;;;;;;5092859;28;20032;-63
2021/09/05 03:15:48;;;;;;;20.00;12.15;;;17.60;99.90;;;;;;5091568;28;20442;-64
2021/09/05 03:18:14;;;;;;;17.90;11.73;;;17.50;99.90;;;;;;5090949;28;20032;-64
2021/09/05 03:20:40;;;;;;;16.17;11.48;;;17.50;99.90;;;;;;5092025;28;20450;-74
2021/09/05 03:23:05;;;;;;;20.67;12.57;;;17.60;99.90;;;;;;5090884;28;20032;-64
2021/09/05 03:25:31;;;;;;;18.85;12.15;;;17.60;99.90;;;;;;5092214;28;20071;-63
2021/09/05 03:27:56;;;;;;;15.52;11.48;;;17.50;99.90;;;;;;5091602;28;20081;-64
2021/09/05 03:30:22;;;;;;;16.13;11.50;;;17.50;99.90;;;;;;5092158;28;20035;-64
2021/09/05 03:32:48;;;;;;;19.65;12.43;;;17.50;99.90;;;;;;5091004;28;20027;-64
2021/09/05 03:35:13;;;;;;;23.27;12.55;;;17.50;99.90;;;;;;5091699;28;20085;-63
2021/09/05 03:37:39;;;;;;;15.65;11.50;;;17.50;99.90;;;;;;5090480;28;20072;-63
2021/09/05 03:40:05;;;;;;;16.80;12.38;;;17.50;99.90;;;;;;5091169;28;20107;-63
2021/09/05 03:42:31;;;;;;;17.95;11.93;;;17.40;99.90;;;;;;5090751;28;20110;-63
2021/09/05 03:44:57;;;;;;;19.90;11.98;;;17.30;99.90;;;;;;5091565;28;20465;-63
2021/09/05 03:47:24;;;;;;;19.50;12.73;;;17.30;99.90;;;;;;5092104;28;20070;-63
2021/09/05 03:49:50;;;;;;;18.17;12.38;;;17.30;99.90;;;;;;5091201;28;20025;-64
2021/09/05 03:52:16;;;;;;;18.30;12.32;;;17.20;99.90;;;;;;5092218;28;20051;-64
2021/09/05 03:54:42;;;;;;;17.15;11.75;;;17.20;99.90;;;;;;5089975;28;20031;-77
2021/09/05 03:57:07;;;;;;;18.90;11.77;;;17.30;99.90;;;;;;5091852;28;20401;-65
2021/09/05 03:59:33;;;;;;;18.40;12.00;;;17.20;99.90;;;;;;5089945;28;20054;-64
2021/09/05 04:01:59;;;;;;;18.52;11.68;;;17.30;99.90;;;;;;5089537;28;20027;-63
2021/09/05 04:04:24;;;;;;;19.33;12.82;;;17.20;99.90;;;;;;5091220;28;20119;-65
2021/09/05 04:07:00;;;;;;;17.42;12.50;;;17.20;99.90;;;;;;5091111;28;20417;-64
2021/09/05 04:12:15;;;;;;;20.20;12.82;;;17.10;99.90;;;;;;5091436;28;20120;-64
2021/09/05 04:14:41;;;;;;;17.95;12.13;;;17.20;99.90;;;;;;5091121;28;20035;-64
2021/09/05 04:17:07;;;;;;;16.42;12.18;;;17.20;99.90;;;;;;5089748;28;20025;-63
2021/09/05 04:19:32;;;;;;;16.42;11.80;;;17.10;99.90;;;;;;5091317;28;20102;-65
2021/09/05 04:21:58;;;;;;;24.33;12.60;;;17.10;99.90;;;;;;5089274;28;20435;-64
2021/09/05 04:24:23;;;;;;;23.02;12.82;;;17.10;99.90;;;;;;5090788;28;20056;-64
2021/09/05 04:26:49;;;;;;;18.80;14.23;;;17.10;99.90;;;;;;5090617;28;20372;-64
2021/09/05 04:29:16;;;;;;;16.25;11.63;;;17.10;99.90;;;;;;5089843;28;20121;-64
2021/09/05 04:31:41;;;;;;;18.33;12.23;;;17.10;99.90;;;;;;5091371;28;20028;-64
2021/09/05 04:34:08;;;;;;;16.48;12.13;;;17.10;99.90;;;;;;5090318;28;20105;-64
2021/09/05 04:36:33;;;;;;;17.35;13.05;;;17.10;99.90;;;;;;5089495;28;20020;-64
2021/09/05 04:38:59;;;;;;;17.20;12.57;;;17.00;99.90;;;;;;5090082;28;20044;-64
2021/09/05 04:41:24;;;;;;;16.33;13.00;;;17.10;99.90;;;;;;5091009;28;20047;-64
2021/09/05 04:43:50;;;;;;;19.52;13.55;;;17.00;99.90;;;;;;5092427;28;20369;-64
2021/09/05 04:46:16;;;;;;;24.55;14.82;;;17.00;99.90;;;;;;5097850;28;20035;-64
2021/09/05 04:48:41;;;;;;;20.65;13.68;;;17.00;99.90;;;;;;5097558;28;20027;-64
2021/09/05 04:51:07;;;;;;;20.52;13.23;;;17.00;99.90;;;;;;5095730;28;20361;-64
2021/09/05 04:53:33;;;;;;;16.73;13.07;;;16.90;99.90;;;;;;5097592;28;20024;-64
2021/09/05 04:55:58;;;;;;;16.63;12.35;;;17.00;99.90;;;;;;5095726;28;20078;-63
2021/09/05 04:58:24;;;;;;;22.83;13.27;;;17.00;99.90;;;;;;5097277;28;20032;-65
2021/09/05 05:00:50;;;;;;;17.05;12.93;;;16.90;99.90;;;;;;5096910;28;20107;-65
2021/09/05 05:03:18;;;;;;;17.50;12.95;;;16.90;99.90;;;;;;5097694;28;20036;-64
2021/09/05 05:05:44;;;;;;;23.42;12.85;;;16.90;99.90;;;;;;5097414;28;20032;-64
2021/09/05 05:08:09;;;;;;;19.75;13.52;;;16.90;99.90;;;;;;5097288;28;20104;-64
2021/09/05 05:10:35;;;;;;;31.20;13.45;;;16.90;99.90;;;;;;5097576;28;20056;-64
2021/09/05 05:13:01;;;;;;;20.35;12.70;;;16.90;99.90;;;;;;5096881;28;20050;-64
2021/09/05 05:15:27;;;;;;;20.65;13.35;;;16.80;99.90;;;;;;5097216;28;20020;-64
2021/09/05 05:17:53;;;;;;;18.38;12.32;;;16.80;99.90;;;;;;5095424;28;20077;-62
2021/09/05 05:20:18;;;;;;;19.85;13.05;;;16.80;99.90;;;;;;5096132;28;20377;-64
2021/09/05 05:22:44;;;;;;;21.30;14.07;;;16.80;99.90;;;;;;5097188;28;20044;-63
2021/09/05 05:25:10;;;;;;;19.13;13.73;;;16.90;99.90;;;;;;5094945;28;20058;-63
2021/09/05 05:27:36;;;;;;;19.50;12.40;;;16.90;99.90;;;;;;5095998;28;20038;-63
2021/09/05 05:30:03;;;;;;;22.77;13.27;;;16.90;99.90;;;;;;5096778;28;20028;-63
2021/09/05 05:32:29;;;;;;;17.35;12.98;;;17.00;99.90;;;;;;5097512;28;20067;-64
2021/09/05 05:34:55;;;;;;;20.35;13.90;;;17.10;99.90;;;;;;5096278;28;20071;-64
2021/09/05 05:37:21;;;;;;;16.50;12.20;;;17.00;99.90;;;;;;5095643;28;20115;-63
2021/09/05 05:39:47;;;;;;;19.20;12.95;;;17.10;99.90;;;;;;5097155;28;20384;-63
2021/09/05 05:42:13;;;;;;;19.70;12.63;;;17.10;99.90;;;;;;5097143;28;20035;-64
2021/09/05 05:44:39;;;;;;;16.40;11.98;;;17.10;99.90;;;;;;5095970;28;20020;-63
2021/09/05 05:47:04;;;;;;;19.58;12.30;;;17.10;99.90;;;;;;5096911;28;20063;-64
2021/09/05 05:49:32;;;;;;;16.65;12.65;;;17.10;99.90;;;;;;5096222;28;20085;-64
2021/09/05 05:51:58;;;;;;;17.15;12.75;;;17.20;99.90;;;;;;5096847;28;20026;-64
2021/09/05 05:54:23;;;;;;;19.88;12.63;;;17.10;99.90;;;;;;5095978;28;20391;-65
2021/09/05 05:56:49;;;;;;;21.65;13.63;;;17.20;99.90;;;;;;5092698;28;20032;-75
2021/09/05 05:59:14;;;;;;;20.98;12.63;;;17.30;99.90;;;;;;5094375;28;20040;-65
2021/09/05 06:01:41;;;;;;;17.73;12.50;;;17.30;99.90;;;;;;5092789;28;20024;-65
2021/09/05 06:04:08;;;;;;;14.43;11.15;;;17.40;99.90;;;;;;5093772;28;20039;-64
2021/09/05 06:06:34;;;;;;;19.45;12.43;;;17.40;99.90;;;;;;5092986;28;20077;-65
2021/09/05 06:09:01;;;;;;;19.13;12.65;;;17.40;99.90;;;;;;5092408;28;20126;-65
2021/09/05 06:11:27;;;;;;;18.90;11.38;;;17.50;99.90;;;;;;5092844;28;20512;-65
2021/09/05 06:13:53;;;;;;;16.35;11.70;;;17.60;99.90;;;;;;5093505;28;20503;-65
2021/09/05 06:16:19;;;;;;;16.20;12.10;;;17.60;99.90;;;;;;5092802;28;20054;-65
2021/09/05 06:18:46;;;;;;;18.63;11.70;;;17.70;99.90;;;;;;5092600;28;20028;-65
2021/09/05 06:21:11;;;;;;;18.52;12.73;;;17.80;99.90;;;;;;5091851;28;20035;-65
2021/09/05 06:23:37;;;;;;;16.40;12.07;;;17.80;99.90;;;;;;5091908;28;20114;-65
2021/09/05 06:26:03;;;;;;;16.63;11.00;;;18.00;99.90;;;;;;5092582;28;20085;-65
2021/09/05 06:28:28;;;;;;;22.23;12.10;;;18.00;99.90;;;;;;5093046;28;20032;-65
2021/09/05 06:30:54;;;;;;;18.40;11.85;;;18.10;99.90;;;;;;5092360;28;20040;-65
2021/09/05 06:33:20;;;;;;;20.20;12.05;;;18.20;99.90;;;;;;5093262;28;20071;-65
2021/09/05 06:35:45;;;;;;;18.95;12.93;;;18.30;99.90;;;;;;5093321;28;20454;-65
2021/09/05 06:38:11;;;;;;;20.45;12.10;;;18.40;99.90;;;;;;5091165;28;20087;-65
2021/09/05 06:40:36;;;;;;;17.67;12.07;;;18.50;99.90;;;;;;5093294;28;20028;-65
2021/09/05 06:43:02;;;;;;;18.15;10.93;;;18.60;99.90;;;;;;5092153;28;20035;-65
2021/09/05 06:45:28;;;;;;;16.50;11.30;;;18.70;99.90;;;;;;5091839;28;20024;-65
2021/09/05 06:47:53;;;;;;;14.65;11.38;;;18.80;99.90;;;;;;5092305;28;20036;-65
2021/09/05 06:50:19;;;;;;;14.25;10.60;;;19.00;99.90;;;;;;5091412;28;20028;-64
2021/09/05 06:52:45;;;;;;;15.50;10.55;;;19.10;99.90;;;;;;5091491;28;20111;-64
2021/09/05 06:55:10;;;;;;;21.75;11.40;;;19.30;99.90;;;;;;5091967;28;20194;-64
2021/09/05 06:57:36;;;;;;;19.75;11.90;;;19.40;99.90;;;;;;5092401;28;20026;-64
2021/09/05 07:00:03;;;;;;;15.88;10.63;;;19.50;99.90;;;;;;5090699;28;20063;-64
2021/09/05 07:02:29;;;;;;;13.82;10.30;;;19.70;99.90;;;;;;5090857;28;20028;-64
2021/09/05 07:04:54;;;;;;;15.20;10.05;;;19.90;99.90;;;;;;5091517;28;20397;-65
2021/09/05 07:07:20;;;;;;;12.63;10.75;;;20.10;99.90;;;;;;5091936;28;20032;-64
2021/09/05 07:09:45;;;;;;;17.77;10.50;;;20.20;99.90;;;;;;5092675;28;20036;-65
2021/09/05 07:12:11;;;;;;;15.40;11.35;;;20.30;99.90;;;;;;5091812;28;20036;-64
2021/09/05 07:14:37;;;;;;;15.85;9.88;;;20.40;99.90;;;;;;5092355;28;20020;-64
2021/09/05 07:17:02;;;;;;;15.65;10.38;;;20.50;99.90;;;;;;5091765;28;20028;-64
2021/09/05 07:19:28;;;;;;;15.82;10.68;;;20.60;99.90;;;;;;5091974;28;20166;-64
2021/09/05 07:21:54;;;;;;;14.25;10.85;;;20.80;99.90;;;;;;5090414;28;20032;-76
2021/09/05 07:24:19;;;;;;;13.45;10.18;;;20.80;99.90;;;;;;5090128;28;20052;-65
2021/09/05 07:26:45;;;;;;;14.80;10.07;;;20.80;99.90;;;;;;5091566;28;20024;-65
2021/09/05 07:29:11;;;;;;;19.15;11.05;;;20.90;99.90;;;;;;5091332;28;20024;-65
2021/09/05 07:31:36;;;;;;;17.15;10.60;;;21.10;99.90;;;;;;5091490;28;20032;-65
2021/09/05 07:34:02;;;;;;;14.65;10.35;;;21.30;99.90;;;;;;5091608;28;20036;-65
2021/09/05 07:36:28;;;;;;;12.27;10.00;;;21.30;99.90;;;;;;5091750;28;20032;-66
2021/09/05 07:38:53;;;;;;;13.00;9.88;;;21.50;99.90;;;;;;5089638;28;20036;-65
2021/09/05 07:41:19;;;;;;;14.07;11.40;;;21.60;99.90;;;;;;5089043;28;20097;-66
2021/09/05 07:43:44;;;;;;;20.52;11.13;;;21.80;99.90;;;;;;5091103;28;20028;-66
2021/09/05 07:46:11;;;;;;;12.68;9.90;;;21.90;99.90;;;;;;5088430;28;20078;-65
2021/09/05 07:48:37;;;;;;;19.38;10.48;;;22.10;99.90;;;;;;5091223;28;20024;-66
2021/09/05 07:51:02;;;;;;;13.55;9.63;;;22.40;99.60;;;;;;5088997;28;20036;-66
2021/09/05 07:53:28;;;;;;;13.75;9.88;;;22.60;99.80;;;;;;5091567;28;20484;-65
2021/09/05 07:55:53;;;;;;;11.88;9.98;;;22.70;99.20;;;;;;5089483;28;20081;-64
2021/09/05 07:58:21;;;;;;;12.73;9.70;;;22.80;98.80;;;;;;5088818;28;20036;-63
2021/09/05 08:00:47;;;;;;;9.82;8.70;;;22.90;98.70;;;;;;5090465;28;20047;-65
2021/09/05 08:03:12;;;;;;;12.93;10.15;;;23.10;98.70;;;;;;5089729;28;20032;-65
2021/09/05 08:05:38;;;;;;;14.18;9.45;;;22.90;98.20;;;;;;5090812;28;20024;-64
2021/09/05 08:08:04;;;;;;;14.40;10.75;;;23.00;98.30;;;;;;5088488;28;20089;-66
2021/09/05 08:10:30;;;;;;;19.38;9.90;;;23.10;98.10;;;;;;5089467;28;20028;-65
2021/09/05 08:12:56;;;;;;;16.50;9.77;;;23.40;97.90;;;;;;5089545;28;20020;-65
2021/09/05 08:15:21;;;;;;;12.77;10.13;;;23.50;97.70;;;;;;5089948;28;20028;-65
2021/09/05 08:17:47;;;;;;;16.58;10.68;;;23.50;97.30;;;;;;5090248;28;20051;-65
2021/09/05 08:20:13;;;;;;;25.50;17.92;;;23.50;97.40;;;;;;5089327;28;20028;-65
2021/09/05 08:22:38;;;;;;;45.72;40.92;;;23.50;97.80;;;;;;5088803;28;20058;-64
2021/09/05 08:25:05;;;;;;;23.52;20.98;;;23.60;97.70;;;;;;5089954;28;20377;-66
2021/09/05 08:27:30;;;;;;;25.25;22.75;;;24.00;97.40;;;;;;5089548;28;20119;-65
2021/09/05 08:29:57;;;;;;;13.15;11.23;;;24.30;97.60;;;;;;5089980;28;20043;-66
2021/09/05 08:32:24;;;;;;;13.85;9.88;;;24.60;96.00;;;;;;5088220;28;20028;-66
2021/09/05 08:34:50;;;;;;;14.70;10.43;;;24.70;96.00;;;;;;5088847;28;20062;-67
2021/09/05 08:37:16;;;;;;;13.35;9.05;;;24.50;96.20;;;;;;5088412;28;20075;-65
2021/09/05 08:39:42;;;;;;;12.73;9.98;;;24.70;96.10;;;;;;5090026;28;20433;-66
2021/09/05 08:42:07;;;;;;;11.50;8.10;;;24.60;95.50;;;;;;5087451;28;20077;-66
2021/09/05 08:44:33;;;;;;;13.88;8.95;;;24.90;95.70;;;;;;5089536;28;20442;-67
2021/09/05 08:46:59;;;;;;;13.75;8.93;;;25.10;95.10;;;;;;5089463;28;20023;-74
2021/09/05 08:49:28;;;;;;;13.13;9.13;;;25.40;94.40;;;;;;5085538;28;20077;-66
2021/09/05 08:52:00;;;;;;;11.10;9.45;;;25.30;94.70;;;;;;5089629;28;20024;-65
2021/09/05 08:54:26;;;;;;;10.48;9.02;;;25.00;95.00;;;;;;5085677;28;20080;-67
2021/09/05 08:56:53;;;;;;;9.75;8.25;;;25.30;95.10;;;;;;5088021;28;20024;-67
2021/09/05 08:59:19;;;;;;;10.68;8.70;;;25.80;94.80;;;;;;5088177;28;20043;-67
2021/09/05 09:01:53;;;;;;;11.07;8.32;;;26.00;94.10;;;;;;5088280;28;20388;-66
2021/09/05 09:04:19;;;;;;;11.07;8.63;;;26.30;94.00;;;;;;5086074;28;20028;-68
2021/09/05 09:06:44;;;;;;;13.15;9.65;;;26.60;93.70;;;;;;5086714;28;20038;-67
2021/09/05 09:09:10;;;;;;;11.40;8.75;;;26.70;93.00;;;;;;5086055;28;20039;-68
2021/09/05 09:11:53;;;;;;;12.20;9.68;;;26.90;93.10;;;;;;5086189;28;20433;-66
2021/09/05 09:14:20;;;;;;;11.75;8.55;;;26.70;91.90;;;;;;5085915;28;20051;-69
2021/09/05 09:16:46;;;;;;;10.52;9.32;;;26.80;92.20;;;;;;5086867;28;20073;-66
2021/09/05 09:19:25;;;;;;;12.00;9.02;;;26.50;92.30;;;;;;5086914;28;20104;-66
2021/09/05 09:21:51;;;;;;;11.20;8.63;;;26.50;92.80;;;;;;5086898;28;20112;-66
2021/09/05 09:24:18;;;;;;;9.30;8.35;;;26.90;92.10;;;;;;5090284;28;20040;-67
2021/09/05 09:27:06;;;;;;;12.02;8.80;;;27.10;92.00;;;;;;5090271;28;20377;-54
2021/09/05 09:29:36;;;;;;;10.93;8.63;;;27.10;92.20;;;;;;5089655;28;20038;-53
2021/09/05 09:32:20;;;;;;;10.68;9.30;;;27.20;91.80;;;;;;5091675;28;20059;-60
2021/09/05 09:34:47;;;;;;;13.38;9.68;;;27.50;92.20;;;;;;5090631;28;20127;-53
2021/09/05 09:37:14;;;;;;;8.73;7.90;;;27.20;91.20;;;;;;5091486;28;20062;-53
2021/09/05 09:39:48;;;;;;;12.40;9.50;;;27.20;91.30;;;;;;5091802;28;20062;-53
2021/09/05 09:42:34;;;;;;;11.50;8.13;;;27.30;91.80;;;;;;5088045;28;20457;-55
2021/09/05 09:45:01;;;;;;;10.75;7.90;;;27.50;91.50;;;;;;5090430;28;20547;-53
2021/09/05 09:47:46;;;;;;;10.27;7.72;;;27.10;91.30;;;;;;5086227;28;20031;-52
2021/09/05 09:50:14;;;;;;;13.23;8.07;;;27.30;91.60;;;;;;5088750;28;20447;-53
2021/09/05 09:52:40;;;;;;;10.23;8.93;;;26.80;91.30;;;;;;5086245;28;20028;-52
2021/09/05 09:55:06;;;;;;;9.68;8.60;;;27.20;90.80;;;;;;5086891;28;20534;-54
2021/09/05 09:57:32;;;;;;;9.82;8.07;;;27.30;90.90;;;;;;5090674;28;20024;-54
2021/09/05 10:00:00;;;;;;;11.52;9.43;;;27.50;90.90;;;;;;5090833;28;20093;-54
2021/09/05 10:02:27;;;;;;;11.95;9.05;;;27.60;90.70;;;;;;5091959;28;20112;-53
2021/09/05 10:04:54;;;;;;;14.75;9.15;;;27.40;90.60;;;;;;5086555;28;20044;-55
2021/09/05 10:07:24;;;;;;;15.57;9.90;;;27.40;90.70;;;;;;5091088;28;20020;-52
2021/09/05 10:09:51;;;;;;;17.20;8.63;;;27.90;90.10;;;;;;5091661;28;20028;-51
2021/09/05 10:12:18;;;;;;;15.10;9.05;;;28.20;90.30;;;;;;5074309;28;20055;-56
2021/09/05 10:14:49;;;;;;;11.60;8.27;;;28.60;90.00;;;;;;5092485;28;20028;-55
2021/09/05 10:17:17;;;;;;;9.38;8.25;;;28.50;90.20;;;;;;5092040;28;20024;-55
2021/09/05 10:19:43;;;;;;;13.18;8.88;;;28.40;90.10;;;;;;5069881;28;20044;-55
2021/09/05 10:22:09;;;;;;;8.90;8.00;;;28.20;91.20;;;;;;5087896;28;20027;-56
2021/09/05 10:24:42;;;;;;;9.15;7.75;;;28.10;90.10;;;;;;5085048;28;20084;-56
2021/09/05 10:27:08;;;;;;;12.15;9.52;;;28.20;90.20;;;;;;5088095;28;20020;-64
2021/09/05 10:29:34;;;;;;;11.15;8.50;;;28.00;90.40;;;;;;5091061;28;20043;-53
2021/09/05 10:32:00;;;;;;;15.27;8.43;;;28.10;90.20;;;;;;5091847;28;20039;-53
2021/09/05 10:34:37;;;;;;;10.45;7.80;;;28.00;89.90;;;;;;5090399;28;20043;-54
2021/09/05 10:37:26;;;;;;;9.27;8.00;;;28.10;90.30;;;;;;5091081;28;20047;-58
2021/09/05 10:40:10;;;;;;;10.52;7.63;;;27.90;90.10;;;;;;5091925;28;20036;-54
2021/09/05 10:43:02;;;;;;;12.25;8.27;;;28.30;90.00;;;;;;5091754;28;20135;-54
2021/09/05 10:45:29;;;;;;;8.63;7.72;;;28.40;88.80;;;;;;5086216;28;20032;-54
2021/09/05 10:47:55;;;;;;;8.43;7.32;;;28.20;88.70;;;;;;5092032;28;20108;-54
2021/09/05 10:50:37;;;;;;;11.95;7.55;;;28.20;89.00;;;;;;5091321;28;20031;-54
2021/09/05 10:53:18;;;;;;;10.35;8.05;;;28.10;89.00;;;;;;5091412;28;20025;-62
2021/09/05 10:56:12;;;;;;;10.10;8.02;;;28.50;89.40;;;;;;5092030;28;20024;-54
2021/09/05 10:58:58;;;;;;;15.05;7.88;;;28.70;88.80;;;;;;5090799;28;20036;-54
2021/09/05 11:01:34;;;;;;;8.98;7.45;;;28.80;88.30;;;;;;5090966;28;20398;-54
2021/09/05 11:04:14;;;;;;;10.25;7.57;;;28.90;88.50;;;;;;5092225;28;20032;-53
2021/09/05 11:07:03;;;;;;;10.02;7.20;;;29.00;87.70;;;;;;5076805;28;20082;-54
2021/09/05 11:09:29;;;;;;;8.85;7.95;;;29.20;87.30;;;;;;5070877;28;20028;-54
2021/09/05 11:12:00;;;;;;;9.98;7.18;;;29.20;87.10;;;;;;5085519;28;20132;-53
2021/09/05 11:14:37;;;;;;;12.80;7.75;;;29.30;87.30;;;;;;5091058;28;20035;-53
2021/09/05 11:17:19;;;;;;;8.90;7.40;;;29.30;86.70;;;;;;5090071;28;20111;-53
2021/09/05 11:19:49;;;;;;;9.20;7.38;;;29.40;87.20;;;;;;5090176;28;20028;-54
2021/09/05 11:22:23;;;;;;;11.47;8.03;;;29.40;86.70;;;;;;5090856;28;20055;-54
2021/09/05 11:25:08;;;;;;;9.65;7.55;;;29.50;86.20;;;;;;5090817;28;20370;-54
2021/09/05 11:27:35;;;;;;;8.20;7.10;;;29.60;85.70;;;;;;5090999;28;20066;-54
2021/09/05 11:30:05;;;;;;;7.45;6.63;;;29.50;85.20;;;;;;5091425;28;20036;-54
2021/09/05 11:32:31;;;;;;;7.78;6.93;;;29.30;86.00;;;;;;5086707;28;20043;-53
2021/09/05 11:34:57;;;;;;;9.35;6.82;;;29.40;85.40;;;;;;5089305;28;20036;-54
2021/09/05 11:37:34;;;;;;;9.23;6.85;;;29.50;85.10;;;;;;5089126;28;20149;-53
2021/09/05 11:40:14;;;;;;;7.35;6.65;;;29.70;85.50;;;;;;5088153;28;20047;-54
2021/09/05 11:42:48;;;;;;;9.57;7.00;;;29.90;84.40;;;;;;5076006;28;20028;-55
2021/09/05 11:45:15;;;;;;;9.15;6.78;;;29.80;84.50;;;;;;5084442;28;20089;-55
2021/09/05 11:47:42;;;;;;;9.30;6.65;;;29.90;84.80;;;;;;5088166;28;20111;-55
2021/09/05 11:50:13;;;;;;;7.38;6.00;;;29.80;84.00;;;;;;5088662;28;20028;-58
2021/09/05 11:52:40;;;;;;;7.15;6.43;;;29.90;82.00;;;;;;5087060;28;20038;-55
2021/09/05 11:55:12;;;;;;;8.20;6.72;;;29.90;83.40;;;;;;5085550;28;20028;-58
2021/09/05 11:57:51;;;;;;;7.63;6.20;;;29.90;82.50;;;;;;5069348;28;20116;-59
2021/09/05 12:00:43;;;;;;;6.57;5.95;;;30.00;81.40;;;;;;5085337;28;20032;-55
2021/09/05 12:03:13;;;;;;;8.38;6.00;;;30.00;81.80;;;;;;5078458;28;20051;-58
2021/09/05 12:05:44;;;;;;;;;;;30.00;81.90;;;;;;5075617;28;20090;-54
2021/09/05 12:08:15;;;;;;;7.10;5.50;;;30.20;81.90;;;;;;5066873;28;20030;-58
2021/09/05 12:10:40;;;;;;;;;;;30.30;80.20;;;;;;5071976;28;20066;-55
2021/09/05 12:13:11;;;;;;;9.43;5.90;;;30.30;80.00;;;;;;5088994;28;19953;-56
2021/09/05 12:15:49;;;;;;;8.07;5.20;;;30.30;79.20;;;;;;5087992;28;20043;-55
2021/09/05 12:18:26;;;;;;;7.35;5.60;;;30.10;79.00;;;;;;5088631;28;20490;-55
2021/09/05 12:20:53;;;;;;;7.47;5.68;;;30.00;79.30;;;;;;5088004;28;20028;-56
2021/09/05 12:23:29;;;;;;;6.30;5.70;;;29.90;79.60;;;;;;5086700;28;20107;-55
2021/09/05 12:25:57;;;;;;;7.93;5.13;;;29.60;78.30;;;;;;5089015;28;20047;-54
2021/09/05 12:28:31;;;;;;;8.02;5.53;;;29.70;78.60;;;;;;5087512;28;20036;-54
2021/09/05 12:31:04;;;;;;;7.65;5.00;;;30.00;78.20;;;;;;5075169;28;20102;-53
2021/09/05 12:33:33;;;;;;;6.10;5.50;;;29.70;77.60;;;;;;5069467;28;20036;-55
2021/09/05 12:36:04;;;;;;;6.13;5.35;;;30.00;78.50;;;;;;5068881;28;20082;-55
2021/09/05 12:38:32;;;;;;;5.70;5.05;;;30.20;78.10;;;;;;5067767;28;20583;-55